Aviation Digital Data Service (ADDS)

Output produced by METARs form (1611 UTC 01 August 2015)
found at http://www.aviationweather.gov/adds/metars/
 
KLNS 011553Z 26011KT 10SM FEW095 28/16 A2987 RMK AO2 SLP112 T02830161
KLNS 011532Z 0116/0212 27010G16KT P6SM SCT100 
     FM011800 29009G15KT P6SM SCT045 
     FM020100 30007KT P6SM SKC